Terminal Aerodrome Forecast
Issued by NWS

Home | Current Version | Previous Version | Text Only | Print | Product List | Glossary On
Versions: 1 2 3 4 5 6 7 8 9 10 11 12 13 14 15 16 17 18
000
FTAK31 PAJN 252300
TAFAJN
TAF
PAJN 252329Z 2600/2624 09005KT P6SM VCSH SCT025 BKN050
      TEMPO 2600/2604 6SM BR FEW005 BKN010 OVC020
     FM260600 00000KT 6SM BR SCT005 SCT030 BKN060
     FM261800 VRB06KT P6SM SCT050 BKN100
     FM262100 05008G15KT P6SM SCT100 WS020/04030KT=

USA.gov is the U.S. government's official web portal to all federal, state and local government web resources and services.